createdAt,value
2022-10-04T00:02:04.773Z,11.25
2022-10-04T00:04:45.110Z,14.10
2022-10-04T00:07:23.128Z,11.07
2022-10-04T00:10:21.322Z,11.95
2022-10-04T00:13:00.281Z,9.82
2022-10-04T00:15:37.548Z,13.02
2022-10-04T00:18:15.221Z,16.10
2022-10-04T00:20:54.034Z,10.68
2022-10-04T00:23:29.534Z,12.88
2022-10-04T00:26:05.842Z,16.50
2022-10-04T00:28:40.275Z,8.73
2022-10-04T00:31:25.159Z,13.75
2022-10-04T00:34:05.719Z,15.70
2022-10-04T00:36:44.676Z,15.55
2022-10-04T00:39:26.560Z,14.02
2022-10-04T00:42:17.626Z,15.48
2022-10-04T00:44:57.260Z,17.65
2022-10-04T00:47:49.005Z,16.90
2022-10-04T00:50:29.263Z,15.98
2022-10-04T00:53:04.584Z,13.77
2022-10-04T00:58:21.088Z,13.07
2022-10-04T01:00:55.290Z,16.23
2022-10-04T01:03:34.980Z,12.23
2022-10-04T01:06:11.150Z,11.85
2022-10-04T01:08:51.604Z,11.65
2022-10-04T01:11:29.638Z,13.38
2022-10-04T01:14:19.546Z,9.13
2022-10-04T01:16:52.215Z,13.27
2022-10-04T01:19:25.191Z,12.90
2022-10-04T01:22:12.665Z,13.75
2022-10-04T01:24:46.312Z,14.38
2022-10-04T01:27:36.067Z,14.50
2022-10-04T01:30:12.886Z,11.48
2022-10-04T01:32:45.642Z,12.35
2022-10-04T01:35:19.417Z,10.60
2022-10-04T01:37:52.054Z,14.32
2022-10-04T01:40:24.741Z,11.52
2022-10-04T01:43:02.546Z,7.95
2022-10-04T01:45:43.762Z,10.35
2022-10-04T01:48:22.446Z,11.68
2022-10-04T01:51:04.827Z,10.18
2022-10-04T01:53:48.715Z,8.68
2022-10-04T01:56:26.547Z,14.07
2022-10-04T01:59:04.152Z,13.18
2022-10-04T02:01:49.248Z,10.15
2022-10-04T02:04:28.422Z,10.30
2022-10-04T02:07:03.141Z,12.50
2022-10-04T02:09:41.386Z,12.15
2022-10-04T02:12:17.138Z,7.28
2022-10-04T02:14:53.378Z,13.52
2022-10-04T02:17:30.804Z,12.27
2022-10-04T02:20:10.278Z,10.32
2022-10-04T02:22:44.493Z,13.02
2022-10-04T02:25:19.806Z,11.52
2022-10-04T02:27:54.235Z,11.38
2022-10-04T02:30:26.811Z,12.67
2022-10-04T02:33:00.703Z,10.30
2022-10-04T02:35:37.864Z,9.38
2022-10-04T02:38:14.920Z,11.55
2022-10-04T02:41:07.167Z,10.40
2022-10-04T02:43:51.768Z,8.98
2022-10-04T02:46:34.320Z,11.75
2022-10-04T02:49:17.353Z,10.65
2022-10-04T02:51:54.851Z,9.45
2022-10-04T02:54:42.543Z,10.68
2022-10-04T02:57:19.955Z,13.93
2022-10-04T03:00:04.439Z,12.68
2022-10-04T03:02:37.263Z,10.82
2022-10-04T03:05:13.612Z,11.60
2022-10-04T03:07:46.922Z,11.70
2022-10-04T03:10:19.571Z,9.20
2022-10-04T03:12:53.411Z,13.68
2022-10-04T03:15:26.000Z,11.55
2022-10-04T03:18:00.082Z,9.55
2022-10-04T03:20:38.313Z,6.97
2022-10-04T03:23:13.961Z,9.35
2022-10-04T03:25:55.543Z,12.65
2022-10-04T03:28:30.383Z,12.02
2022-10-04T03:31:03.401Z,11.07
2022-10-04T03:33:36.291Z,15.63
2022-10-04T03:36:16.984Z,12.88
2022-10-04T03:38:52.612Z,9.35
2022-10-04T03:41:26.156Z,10.52
2022-10-04T03:44:02.748Z,10.77
2022-10-04T03:46:37.983Z,11.10
2022-10-04T03:49:17.767Z,11.65
2022-10-04T03:51:51.473Z,10.80
2022-10-04T03:54:28.363Z,10.40
2022-10-04T03:57:02.221Z,10.40
2022-10-04T03:59:36.823Z,11.30
2022-10-04T04:02:18.773Z,10.52
2022-10-04T04:04:59.119Z,9.52
2022-10-04T04:07:33.719Z,12.20
2022-10-04T04:10:18.621Z,10.07
2022-10-04T04:13:01.658Z,14.50
2022-10-04T04:15:34.897Z,11.80
2022-10-04T04:18:20.831Z,12.73
2022-10-04T04:20:59.312Z,11.70
2022-10-04T04:23:34.543Z,11.30
2022-10-04T04:26:19.949Z,11.18
2022-10-04T04:28:57.568Z,14.13
2022-10-04T04:31:48.834Z,8.30
2022-10-04T04:34:25.229Z,13.15
2022-10-04T04:37:02.883Z,11.73
2022-10-04T04:39:37.535Z,12.15
2022-10-04T04:42:21.643Z,16.08
2022-10-04T04:45:01.034Z,15.55
2022-10-04T04:47:43.919Z,15.15
2022-10-04T04:50:24.584Z,11.70
2022-10-04T04:53:20.813Z,10.85
2022-10-04T04:56:04.695Z,12.85
2022-10-04T04:58:42.707Z,14.30
2022-10-04T05:01:27.033Z,12.10
2022-10-04T05:04:05.831Z,19.88
2022-10-04T05:06:42.175Z,31.50
2022-10-04T05:09:32.181Z,50.08
2022-10-04T05:12:20.335Z,108.18
2022-10-04T05:14:54.825Z,234.30
2022-10-04T05:17:34.259Z,333.80
2022-10-04T05:20:07.681Z,298.35
2022-10-04T05:22:46.782Z,309.42
2022-10-04T05:25:29.434Z,358.10
2022-10-04T05:28:03.009Z,160.27
2022-10-04T05:30:53.394Z,264.33
2022-10-04T05:33:45.836Z,288.88
2022-10-04T05:36:32.226Z,326.00
2022-10-04T05:39:25.033Z,325.83
2022-10-04T05:42:13.771Z,345.55
2022-10-04T05:44:52.254Z,465.55
2022-10-04T05:47:29.163Z,373.42
2022-10-04T05:50:02.385Z,455.58
2022-10-04T05:52:38.731Z,199.95
2022-10-04T05:55:27.777Z,331.20
2022-10-04T05:58:28.263Z,190.80
2022-10-04T06:01:11.381Z,500.65
2022-10-04T06:03:46.622Z,372.17
2022-10-04T06:06:29.394Z,512.33
2022-10-04T06:09:03.963Z,410.70
2022-10-04T06:12:01.640Z,235.10
2022-10-04T06:14:49.572Z,385.50
2022-10-04T06:17:29.987Z,195.05
2022-10-04T06:20:09.399Z,230.00
2022-10-04T06:22:46.640Z,116.57
2022-10-04T06:25:27.188Z,102.35
2022-10-04T06:28:30.946Z,129.95
2022-10-04T06:31:24.830Z,227.05
2022-10-04T06:34:10.300Z,170.25
2022-10-04T06:37:15.886Z,187.00
2022-10-04T06:39:57.291Z,315.20
2022-10-04T06:42:59.834Z,63.50
2022-10-04T06:45:48.528Z,67.78
2022-10-04T06:48:23.098Z,33.03
2022-10-04T06:51:07.228Z,27.97
2022-10-04T06:53:53.111Z,24.02
2022-10-04T06:59:10.141Z,22.73
2022-10-04T07:02:01.377Z,25.63
2022-10-04T07:05:06.427Z,24.50
2022-10-04T07:07:37.882Z,23.70
2022-10-04T07:10:26.233Z,22.85
2022-10-04T07:13:30.066Z,22.45
2022-10-04T07:16:19.746Z,21.40
2022-10-04T07:18:58.562Z,25.17
2022-10-04T07:21:46.488Z,23.48
2022-10-04T07:24:33.585Z,23.52
2022-10-04T07:27:11.004Z,27.15
2022-10-04T07:29:46.812Z,22.92
2022-10-04T07:32:38.374Z,22.33
2022-10-04T07:35:14.913Z,24.02
2022-10-04T07:37:50.804Z,22.65
2022-10-04T07:40:43.449Z,20.77
2022-10-04T07:43:27.652Z,21.65
2022-10-04T07:46:06.579Z,20.40
2022-10-04T07:48:41.952Z,22.05
2022-10-04T07:54:03.199Z,20.73
2022-10-04T07:56:44.738Z,19.95
2022-10-04T07:59:30.595Z,16.60
2022-10-04T08:02:34.277Z,22.88
2022-10-04T08:05:23.410Z,19.20
2022-10-04T08:08:26.664Z,19.17
2022-10-04T08:11:24.586Z,19.60
2022-10-04T08:14:27.806Z,18.40
2022-10-04T08:17:15.590Z,18.52
2022-10-04T08:20:19.862Z,20.23
2022-10-04T08:23:08.924Z,18.95
2022-10-04T08:25:57.411Z,13.68
2022-10-04T08:29:04.042Z,14.65
2022-10-04T08:34:52.337Z,15.75
2022-10-04T08:37:28.644Z,15.93
2022-10-04T08:40:12.953Z,13.23
2022-10-04T08:43:01.969Z,13.07
2022-10-04T08:45:54.391Z,13.82
2022-10-04T08:48:59.018Z,11.75
2022-10-04T08:52:02.977Z,10.32
2022-10-04T08:54:59.085Z,13.48
2022-10-04T08:58:03.120Z,11.88
2022-10-04T09:01:06.687Z,13.43
2022-10-04T09:04:02.591Z,12.98
2022-10-04T09:06:50.030Z,13.05
2022-10-04T09:09:45.429Z,15.13
2022-10-04T09:12:35.285Z,16.87
2022-10-04T09:15:28.038Z,14.68
2022-10-04T09:18:33.244Z,16.10
2022-10-04T09:21:11.858Z,21.45
2022-10-04T09:23:56.206Z,16.77
2022-10-04T09:26:46.710Z,18.45
2022-10-04T09:29:35.095Z,20.90
2022-10-04T09:32:18.220Z,24.75
2022-10-04T09:35:11.936Z,23.05
2022-10-04T09:37:55.223Z,22.40
2022-10-04T09:40:37.175Z,30.15
2022-10-04T09:43:41.340Z,25.15
2022-10-04T09:46:30.006Z,31.30
2022-10-04T09:49:30.873Z,28.08
2022-10-04T09:52:34.070Z,35.67
2022-10-04T09:55:30.542Z,26.00
2022-10-04T09:58:13.142Z,32.58
2022-10-04T10:01:17.167Z,33.63
2022-10-04T10:03:55.184Z,26.63
2022-10-04T10:06:41.980Z,31.55
2022-10-04T10:09:47.023Z,25.50
2022-10-04T10:12:51.318Z,29.55
2022-10-04T10:15:49.198Z,28.13
2022-10-04T10:18:35.649Z,29.45
2022-10-04T10:21:17.493Z,28.45
2022-10-04T10:24:05.066Z,26.88
2022-10-04T10:26:53.704Z,30.48
2022-10-04T10:29:38.167Z,28.42
2022-10-04T10:32:34.003Z,34.08
2022-10-04T10:35:23.863Z,37.13
2022-10-04T10:38:15.637Z,30.23
2022-10-04T10:41:00.192Z,29.95
2022-10-04T10:43:56.203Z,29.90
2022-10-04T10:46:43.969Z,32.80
2022-10-04T10:49:22.095Z,28.88
2022-10-04T10:52:12.669Z,29.77
2022-10-04T10:55:16.365Z,32.92
2022-10-04T10:58:07.506Z,34.13
2022-10-04T11:00:59.172Z,31.08
2022-10-04T11:03:56.584Z,31.23
2022-10-04T11:06:54.119Z,29.63
2022-10-04T11:09:33.306Z,30.08
2022-10-04T11:12:24.515Z,29.70
2022-10-04T11:15:28.715Z,30.58
2022-10-04T11:18:25.512Z,34.78
2022-10-04T11:21:29.239Z,32.72
2022-10-04T11:24:21.824Z,29.48
2022-10-04T11:27:11.311Z,28.08
2022-10-04T11:30:15.654Z,29.77
2022-10-04T11:33:00.332Z,31.20
2022-10-04T11:35:47.876Z,32.33
2022-10-04T11:38:36.614Z,29.92
2022-10-04T11:41:16.902Z,26.63
2022-10-04T11:43:52.827Z,26.77
2022-10-04T11:46:33.995Z,28.02
2022-10-04T11:49:20.342Z,30.42
2022-10-04T11:52:08.489Z,29.52
2022-10-04T11:55:11.583Z,30.10
2022-10-04T11:58:02.408Z,29.38
2022-10-04T12:01:03.490Z,28.13
2022-10-04T12:03:46.891Z,29.25
2022-10-04T12:06:35.990Z,25.40
2022-10-04T12:09:21.852Z,25.52
2022-10-04T12:12:23.007Z,29.13
2022-10-04T12:15:14.797Z,25.90
2022-10-04T12:18:18.641Z,24.42
2022-10-04T12:21:22.782Z,27.55
2022-10-04T12:24:09.447Z,26.92
2022-10-04T12:27:12.416Z,24.88
2022-10-04T12:30:03.336Z,26.88
2022-10-04T12:32:39.447Z,21.20
2022-10-04T12:35:12.609Z,25.55
2022-10-04T12:38:11.182Z,29.58
2022-10-04T12:40:51.122Z,25.58
2022-10-04T12:43:30.867Z,21.98
2022-10-04T12:46:19.540Z,25.05
2022-10-04T12:49:04.456Z,25.45
2022-10-04T12:51:50.214Z,19.60
2022-10-04T12:57:26.349Z,27.45
2022-10-04T13:00:05.510Z,23.75
2022-10-04T13:03:04.507Z,24.00
2022-10-04T13:06:03.179Z,20.83
2022-10-04T13:08:59.370Z,29.05
2022-10-04T13:14:18.294Z,28.25
2022-10-04T13:17:30.748Z,22.55
2022-10-04T13:20:32.065Z,20.95
2022-10-04T13:23:05.197Z,21.75
2022-10-04T13:25:46.241Z,27.23
2022-10-04T13:28:32.411Z,21.55
2022-10-04T13:31:24.857Z,20.70
2022-10-04T13:34:10.214Z,22.23
2022-10-04T13:37:13.842Z,20.05
2022-10-04T13:39:51.446Z,22.98
2022-10-04T13:42:39.980Z,22.33
2022-10-04T13:45:26.711Z,22.35
2022-10-04T13:48:31.232Z,19.05
2022-10-04T13:51:27.545Z,23.55
2022-10-04T13:54:16.268Z,21.30
2022-10-04T13:56:52.764Z,28.27
2022-10-04T13:59:35.248Z,22.98
2022-10-04T14:02:24.590Z,24.60
2022-10-04T14:05:10.361Z,21.75
2022-10-04T14:07:50.672Z,28.08
2022-10-04T14:10:38.879Z,27.92
2022-10-04T14:13:25.354Z,27.52
2022-10-04T14:16:35.094Z,25.33
2022-10-04T14:19:38.992Z,26.65
2022-10-04T14:22:43.651Z,27.08
2022-10-04T14:25:39.751Z,26.50
2022-10-04T14:31:37.114Z,27.95
2022-10-04T14:34:34.330Z,26.27
2022-10-04T14:37:25.976Z,25.67
2022-10-04T14:40:15.580Z,26.67
2022-10-04T14:42:55.442Z,21.75
2022-10-04T14:45:39.449Z,25.00
2022-10-04T14:48:27.806Z,25.25
2022-10-04T14:51:25.478Z,28.40
2022-10-04T14:54:01.576Z,28.15
2022-10-04T14:56:50.422Z,27.15
2022-10-04T14:59:33.224Z,29.10
2022-10-04T15:02:32.021Z,26.65
2022-10-04T15:05:24.820Z,29.83
2022-10-04T15:08:29.470Z,24.77
2022-10-04T15:11:13.556Z,24.70
2022-10-04T15:13:58.942Z,25.27
2022-10-04T15:16:48.215Z,24.77
2022-10-04T15:19:21.963Z,25.30
2022-10-04T15:21:56.176Z,26.55
2022-10-04T15:24:47.195Z,26.98
2022-10-04T15:27:23.889Z,26.67
2022-10-04T15:30:13.132Z,27.83
2022-10-04T15:33:01.631Z,27.02
2022-10-04T15:35:43.047Z,31.52
2022-10-04T15:38:23.516Z,27.77
2022-10-04T15:40:59.123Z,33.00
2022-10-04T15:43:37.745Z,30.35
2022-10-04T15:46:34.409Z,27.65
2022-10-04T15:49:17.313Z,26.10
2022-10-04T15:52:03.643Z,25.27
2022-10-04T15:55:08.025Z,27.17
2022-10-04T15:57:45.845Z,29.30
2022-10-04T16:00:23.709Z,29.90
2022-10-04T16:03:15.205Z,30.65
2022-10-04T16:06:02.441Z,29.73
2022-10-04T16:09:03.797Z,27.63
2022-10-04T16:11:48.126Z,29.85
2022-10-04T16:14:28.426Z,31.42
2022-10-04T16:17:10.590Z,28.95
2022-10-04T16:19:49.928Z,33.88
2022-10-04T16:22:38.499Z,26.75
2022-10-04T16:25:37.121Z,48.53
2022-10-04T16:28:41.109Z,30.98
2022-10-04T16:31:30.683Z,31.60
2022-10-04T16:34:25.411Z,31.92
2022-10-04T16:37:02.506Z,34.42
2022-10-04T16:40:05.832Z,31.88
2022-10-04T16:42:55.587Z,36.60
2022-10-04T16:45:37.955Z,34.67
2022-10-04T16:48:23.740Z,29.75
2022-10-04T16:51:18.731Z,29.67
2022-10-04T16:54:07.505Z,32.05
2022-10-04T16:56:57.759Z,33.10
2022-10-04T16:59:38.603Z,31.10
2022-10-04T17:02:14.124Z,31.30
2022-10-04T17:05:17.267Z,30.23
2022-10-04T17:07:59.348Z,32.22
2022-10-04T17:10:39.098Z,30.15
2022-10-04T17:13:34.815Z,33.90
2022-10-04T17:16:39.001Z,31.00
2022-10-04T17:19:31.329Z,33.63
2022-10-04T17:22:34.830Z,31.45
2022-10-04T17:25:30.296Z,34.22
2022-10-04T17:28:32.375Z,38.28
2022-10-04T17:31:07.252Z,37.00
2022-10-04T17:33:55.709Z,33.22
2022-10-04T17:36:51.544Z,35.08
2022-10-04T17:39:39.999Z,34.88
2022-10-04T17:42:29.306Z,38.15
2022-10-04T17:45:20.846Z,44.83
2022-10-04T17:48:29.469Z,33.53
2022-10-04T17:51:29.971Z,48.88
2022-10-04T17:54:29.194Z,41.10
2022-10-04T17:57:05.852Z,35.08
2022-10-04T17:59:42.961Z,36.92
2022-10-04T18:02:25.777Z,41.47
2022-10-04T18:05:02.106Z,41.33
2022-10-04T18:07:42.235Z,38.38
2022-10-04T18:10:32.752Z,43.72
2022-10-04T18:13:12.444Z,39.75
2022-10-04T18:16:00.988Z,37.42
2022-10-04T18:18:42.975Z,35.47
2022-10-04T18:21:16.317Z,38.92
2022-10-04T18:23:54.659Z,37.92
2022-10-04T18:26:32.749Z,37.92
2022-10-04T18:29:13.181Z,44.42
2022-10-04T18:31:46.235Z,45.05
2022-10-04T18:34:29.120Z,39.97
2022-10-04T18:37:21.420Z,38.58
2022-10-04T18:39:55.904Z,41.65
2022-10-04T18:42:32.748Z,39.92
2022-10-04T18:45:24.426Z,42.25
2022-10-04T18:48:02.801Z,40.78
2022-10-04T18:50:43.829Z,39.25
2022-10-04T18:53:21.598Z,40.50
2022-10-04T18:55:58.898Z,42.22
2022-10-04T18:59:17.648Z,39.22
2022-10-04T19:02:10.805Z,39.95
2022-10-04T19:04:50.178Z,39.90
2022-10-04T19:07:32.601Z,42.38
2022-10-04T19:10:14.474Z,47.78
2022-10-04T19:13:11.397Z,39.38
2022-10-04T19:15:45.891Z,44.50
2022-10-04T19:18:49.479Z,39.60
2022-10-04T19:21:39.438Z,40.35
2022-10-04T19:24:27.536Z,39.72
2022-10-04T19:27:05.356Z,42.17
2022-10-04T19:29:54.325Z,36.92
2022-10-04T19:32:34.754Z,36.92
2022-10-04T19:35:28.203Z,38.38
2022-10-04T19:38:33.418Z,45.70
2022-10-04T19:41:29.704Z,38.25
2022-10-04T19:44:06.044Z,42.10
2022-10-04T19:46:47.547Z,39.80
2022-10-04T19:49:36.164Z,37.20
2022-10-04T19:52:22.974Z,36.25
2022-10-04T19:55:03.982Z,36.28
2022-10-04T19:57:39.669Z,33.60
2022-10-04T20:00:15.871Z,32.78
2022-10-04T20:02:50.754Z,36.17
2022-10-04T20:05:26.756Z,31.77
2022-10-04T20:08:05.460Z,35.38
2022-10-04T20:10:39.080Z,35.95
2022-10-04T20:13:23.957Z,37.17
2022-10-04T20:16:00.893Z,35.73
2022-10-04T20:18:34.241Z,32.63
2022-10-04T20:21:10.448Z,33.20
2022-10-04T20:23:48.057Z,34.90
2022-10-04T20:26:55.685Z,33.35
2022-10-04T20:29:58.041Z,33.20
2022-10-04T20:32:34.438Z,34.67
2022-10-04T20:35:14.186Z,36.72
2022-10-04T20:38:07.901Z,37.42
2022-10-04T20:40:47.253Z,31.92
2022-10-04T20:43:20.449Z,36.85
2022-10-04T20:45:55.327Z,35.80
2022-10-04T20:48:31.463Z,37.10
2022-10-04T20:51:21.556Z,33.85
2022-10-04T20:53:54.971Z,34.17
2022-10-04T20:56:31.090Z,31.20
2022-10-04T20:59:05.077Z,34.10
2022-10-04T21:01:38.206Z,35.13
2022-10-04T21:04:15.686Z,35.35
2022-10-04T21:06:57.877Z,33.15
2022-10-04T21:09:31.940Z,35.67
2022-10-04T21:12:07.569Z,34.55
2022-10-04T21:14:40.257Z,32.10
2022-10-04T21:17:29.256Z,34.03
2022-10-04T21:20:01.825Z,33.00
2022-10-04T21:22:35.376Z,34.58
2022-10-04T21:25:27.960Z,31.05
2022-10-04T21:28:32.058Z,36.60
2022-10-04T21:31:04.787Z,30.20
2022-10-04T21:33:38.015Z,34.17
2022-10-04T21:36:10.592Z,33.92
2022-10-04T21:38:43.142Z,34.75
2022-10-04T21:41:15.613Z,36.53
2022-10-04T21:43:48.110Z,37.63
2022-10-04T21:46:20.958Z,35.67
2022-10-04T21:48:53.783Z,35.80
2022-10-04T21:51:26.652Z,33.53
2022-10-04T21:53:59.794Z,41.47
2022-10-04T21:56:32.240Z,39.20
2022-10-04T21:59:04.990Z,36.70
2022-10-04T22:01:37.666Z,36.60
2022-10-04T22:04:10.245Z,39.75
2022-10-04T22:06:43.500Z,42.70
2022-10-04T22:09:16.540Z,42.25
2022-10-04T22:11:49.124Z,38.13
2022-10-04T22:14:21.828Z,32.53
2022-10-04T22:16:54.444Z,39.15
2022-10-04T22:19:27.071Z,47.03
2022-10-04T22:21:59.730Z,40.28
2022-10-04T22:24:32.498Z,46.60
2022-10-04T22:27:15.378Z,47.67
2022-10-04T22:29:48.309Z,47.30
2022-10-04T22:32:24.348Z,51.42
2022-10-04T22:35:07.352Z,51.38
2022-10-04T22:37:40.134Z,49.65
2022-10-04T22:40:17.956Z,48.83
2022-10-04T22:42:53.545Z,46.17
2022-10-04T22:45:29.886Z,45.03
2022-10-04T22:48:10.789Z,42.15
2022-10-04T22:50:43.642Z,45.47
2022-10-04T22:53:22.271Z,44.15
2022-10-04T22:55:56.668Z,43.88
2022-10-04T22:58:29.096Z,42.17
2022-10-04T23:01:01.923Z,41.75
2022-10-04T23:03:34.758Z,43.58
2022-10-04T23:06:13.185Z,47.53
2022-10-04T23:08:45.704Z,43.95
2022-10-04T23:11:18.623Z,43.42
2022-10-04T23:13:51.090Z,45.28
2022-10-04T23:16:24.225Z,42.40
2022-10-04T23:19:15.186Z,39.47
2022-10-04T23:21:50.397Z,41.78
2022-10-04T23:24:23.607Z,47.72
2022-10-04T23:26:57.128Z,49.83
2022-10-04T23:29:33.858Z,61.45
2022-10-04T23:32:12.628Z,48.10
2022-10-04T23:34:50.920Z,46.58
2022-10-04T23:37:30.859Z,49.67
2022-10-04T23:40:03.658Z,46.25
2022-10-04T23:42:37.196Z,42.67
2022-10-04T23:45:19.582Z,45.55
2022-10-04T23:47:55.423Z,48.67
2022-10-04T23:50:33.048Z,49.05
2022-10-04T23:53:12.356Z,48.75
2022-10-04T23:55:46.134Z,46.70
2022-10-04T23:58:23.034Z,50.70
